createdAt,value
2023-03-12T00:02:08.515Z,14.93
2023-03-12T00:04:36.359Z,10.43
2023-03-12T00:07:06.490Z,17.23
2023-03-12T00:09:37.806Z,18.07
2023-03-12T00:12:05.488Z,16.23
2023-03-12T00:14:32.908Z,14.97
2023-03-12T00:17:00.279Z,14.43
2023-03-12T00:19:27.623Z,19.50
2023-03-12T00:21:54.832Z,11.83
2023-03-12T00:24:22.070Z,10.53
2023-03-12T00:26:49.698Z,12.80
2023-03-12T00:29:17.030Z,13.53
2023-03-12T00:31:44.422Z,9.17
2023-03-12T00:34:11.889Z,11.03
2023-03-12T00:36:41.283Z,16.47
2023-03-12T00:39:08.508Z,9.20
2023-03-12T00:41:35.821Z,13.23
2023-03-12T00:44:03.132Z,12.23
2023-03-12T00:46:30.373Z,10.03
2023-03-12T00:48:57.639Z,14.57
2023-03-12T00:51:25.055Z,10.67
2023-03-12T00:53:52.289Z,9.60
2023-03-12T00:56:19.496Z,13.80
2023-03-12T00:58:46.721Z,21.20
2023-03-12T01:01:14.507Z,9.67
2023-03-12T01:03:41.752Z,11.30
2023-03-12T01:06:08.969Z,11.63
2023-03-12T01:08:36.172Z,11.67
2023-03-12T01:11:03.408Z,7.60
2023-03-12T01:13:30.998Z,8.30
2023-03-12T01:15:58.296Z,10.33
2023-03-12T01:18:25.587Z,10.23
2023-03-12T01:20:52.757Z,13.67
2023-03-12T01:23:20.085Z,10.67
2023-03-12T01:25:47.877Z,7.53
2023-03-12T01:28:15.204Z,9.80
2023-03-12T01:30:42.392Z,8.80
2023-03-12T01:33:09.634Z,14.70
2023-03-12T01:35:40.340Z,10.93
2023-03-12T01:38:18.210Z,10.37
2023-03-12T01:40:45.455Z,8.13
2023-03-12T01:43:32.375Z,9.53
2023-03-12T01:46:03.092Z,7.37
2023-03-12T01:48:32.877Z,6.40
2023-03-12T01:51:00.485Z,9.00
2023-03-12T01:53:29.178Z,8.23
2023-03-12T01:55:56.729Z,6.20
2023-03-12T01:58:24.011Z,9.30
2023-03-12T02:00:51.247Z,11.63
2023-03-12T02:03:18.551Z,7.70
2023-03-12T02:05:45.893Z,7.70
2023-03-12T02:08:13.860Z,10.23
2023-03-12T02:10:41.092Z,6.27
2023-03-12T02:13:08.438Z,5.33
2023-03-12T02:15:36.194Z,6.13
2023-03-12T02:18:04.480Z,6.53
2023-03-12T02:20:42.564Z,8.23
2023-03-12T02:23:11.270Z,5.87
2023-03-12T02:25:40.573Z,10.97
2023-03-12T02:28:08.996Z,10.57
2023-03-12T02:30:36.413Z,5.53
2023-03-12T02:33:07.317Z,6.97
2023-03-12T02:35:34.983Z,9.37
2023-03-12T02:38:02.319Z,11.60
2023-03-12T02:40:42.947Z,9.03
2023-03-12T02:43:11.255Z,7.20
2023-03-12T02:45:39.661Z,8.83
2023-03-12T02:48:09.154Z,6.03
2023-03-12T02:50:36.363Z,6.80
2023-03-12T02:53:03.664Z,6.13
2023-03-12T02:55:31.089Z,7.03
2023-03-12T02:57:58.498Z,5.97
2023-03-12T03:00:26.152Z,8.07
2023-03-12T03:02:53.352Z,9.67
2023-03-12T03:05:21.681Z,7.07
2023-03-12T03:07:48.887Z,5.80
2023-03-12T03:10:17.492Z,6.63
2023-03-12T03:12:44.769Z,11.03
2023-03-12T03:15:12.513Z,7.17
2023-03-12T03:17:39.731Z,5.37
2023-03-12T03:20:11.087Z,8.27
2023-03-12T03:22:39.091Z,7.93
2023-03-12T03:25:07.202Z,9.13
2023-03-12T03:27:34.446Z,4.57
2023-03-12T03:30:02.310Z,6.33
2023-03-12T03:32:29.712Z,7.07
2023-03-12T03:34:56.950Z,5.53
2023-03-12T03:37:24.147Z,8.10
2023-03-12T03:39:51.359Z,8.00
2023-03-12T03:42:18.731Z,5.67
2023-03-12T03:44:45.906Z,6.20
2023-03-12T03:47:13.167Z,5.10
2023-03-12T03:49:41.037Z,8.87
2023-03-12T03:52:08.326Z,4.27
2023-03-12T03:54:36.038Z,6.63
2023-03-12T03:57:03.337Z,5.00
2023-03-12T03:59:30.542Z,6.47
2023-03-12T04:01:57.722Z,7.80
2023-03-12T04:04:24.928Z,4.67
2023-03-12T04:06:52.197Z,8.70
2023-03-12T04:09:19.472Z,5.90
2023-03-12T04:11:46.723Z,5.40
2023-03-12T04:14:14.013Z,8.63
2023-03-12T04:16:41.226Z,8.27
2023-03-12T04:19:08.456Z,10.60
2023-03-12T04:21:35.719Z,7.10
2023-03-12T04:24:03.098Z,5.60
2023-03-12T04:26:30.284Z,5.03
2023-03-12T04:28:57.612Z,7.33
2023-03-12T04:31:24.960Z,7.97
2023-03-12T04:33:52.180Z,7.60
2023-03-12T04:36:19.465Z,6.73
2023-03-12T04:38:46.760Z,7.77
2023-03-12T04:41:14.752Z,7.07
2023-03-12T04:43:42.009Z,6.53
2023-03-12T04:46:09.581Z,6.43
2023-03-12T04:48:37.221Z,4.30
2023-03-12T04:51:05.286Z,4.80
2023-03-12T04:53:33.080Z,8.10
2023-03-12T04:56:00.664Z,9.40
2023-03-12T04:58:28.081Z,12.33
2023-03-12T05:00:55.297Z,6.67
2023-03-12T05:03:22.518Z,7.23
2023-03-12T05:05:49.703Z,10.67
2023-03-12T05:08:17.064Z,7.70
2023-03-12T05:10:47.073Z,9.37
2023-03-12T05:13:21.786Z,10.07
2023-03-12T05:15:50.782Z,7.30
2023-03-12T05:18:20.343Z,7.37
2023-03-12T05:20:47.675Z,6.10
2023-03-12T05:23:14.905Z,7.10
2023-03-12T05:25:42.345Z,4.50
2023-03-12T05:28:09.595Z,9.03
2023-03-12T05:30:36.969Z,7.43
2023-03-12T05:33:04.404Z,8.03
2023-03-12T05:35:31.659Z,11.47
2023-03-12T05:37:58.983Z,6.23
2023-03-12T05:40:26.268Z,10.67
2023-03-12T05:42:54.194Z,11.13
2023-03-12T05:45:21.473Z,8.30
2023-03-12T05:47:48.657Z,8.23
2023-03-12T05:50:16.792Z,8.10
2023-03-12T05:52:44.008Z,5.87
2023-03-12T05:55:11.299Z,8.70
2023-03-12T05:57:38.516Z,7.33
2023-03-12T06:00:06.222Z,5.83
2023-03-12T06:02:33.466Z,12.20
2023-03-12T06:05:00.742Z,6.33
2023-03-12T06:07:27.988Z,9.47
2023-03-12T06:09:55.257Z,7.13
2023-03-12T06:12:22.470Z,6.37
2023-03-12T06:14:49.697Z,7.33
2023-03-12T06:17:16.862Z,6.30
2023-03-12T06:19:44.349Z,6.43
2023-03-12T06:22:11.645Z,5.70
2023-03-12T06:24:41.012Z,6.30
2023-03-12T06:27:08.384Z,7.33
2023-03-12T06:29:35.658Z,9.53
2023-03-12T06:32:02.975Z,10.93
2023-03-12T06:34:30.332Z,9.07
2023-03-12T06:36:57.653Z,9.30
2023-03-12T06:39:25.068Z,10.20
2023-03-12T06:41:52.293Z,8.23
2023-03-12T06:44:19.719Z,13.13
2023-03-12T06:46:47.204Z,8.90
2023-03-12T06:49:15.475Z,8.37
2023-03-12T06:51:42.733Z,7.97
2023-03-12T06:54:09.995Z,7.63
2023-03-12T06:56:38.234Z,16.30
2023-03-12T06:59:05.714Z,6.43
2023-03-12T07:01:33.043Z,7.03
2023-03-12T07:04:00.226Z,7.07
2023-03-12T07:06:27.420Z,11.37
2023-03-12T07:08:54.962Z,6.43
2023-03-12T07:11:22.258Z,8.60
2023-03-12T07:13:49.588Z,6.67
2023-03-12T07:16:16.836Z,8.83
2023-03-12T07:18:44.095Z,10.30
2023-03-12T07:21:11.306Z,8.50
2023-03-12T07:23:38.518Z,8.17
2023-03-12T07:26:06.839Z,11.80
2023-03-12T07:28:34.419Z,10.93
2023-03-12T07:31:03.096Z,7.87
2023-03-12T07:33:30.586Z,10.13
2023-03-12T07:35:58.062Z,6.50
2023-03-12T07:38:25.557Z,8.47
2023-03-12T07:40:53.590Z,5.17
2023-03-12T07:43:21.911Z,5.57
2023-03-12T07:45:49.676Z,15.23
2023-03-12T07:48:19.578Z,6.60
2023-03-12T07:50:46.959Z,7.37
2023-03-12T07:53:14.285Z,7.23
2023-03-12T07:55:41.629Z,5.40
2023-03-12T07:58:09.076Z,6.83
2023-03-12T08:00:36.309Z,9.67
2023-03-12T08:03:03.720Z,9.13
2023-03-12T08:05:31.180Z,8.13
2023-03-12T08:07:58.458Z,10.10
2023-03-12T08:10:25.915Z,9.70
2023-03-12T08:12:53.186Z,13.67
2023-03-12T08:15:20.512Z,9.13
2023-03-12T08:17:47.942Z,11.87
2023-03-12T08:20:15.440Z,8.83
2023-03-12T08:22:42.618Z,7.10
2023-03-12T08:25:10.176Z,12.63
2023-03-12T08:27:37.454Z,8.63
2023-03-12T08:30:06.551Z,6.40
2023-03-12T08:32:34.183Z,9.47
2023-03-12T08:35:01.587Z,11.33
2023-03-12T08:37:28.864Z,6.10
2023-03-12T08:39:56.055Z,4.13
2023-03-12T08:42:23.269Z,10.77
2023-03-12T08:44:50.555Z,10.10
2023-03-12T08:47:17.718Z,8.13
2023-03-12T08:49:45.044Z,8.90
2023-03-12T08:52:12.605Z,5.43
2023-03-12T08:54:39.819Z,11.13
2023-03-12T08:57:07.136Z,9.60
2023-03-12T08:59:34.383Z,8.73
2023-03-12T09:02:02.241Z,9.57
2023-03-12T09:04:29.647Z,9.67
2023-03-12T09:06:56.979Z,8.60
2023-03-12T09:09:24.346Z,9.70
2023-03-12T09:11:51.700Z,8.67
2023-03-12T09:15:02.135Z,5.73
2023-03-12T09:17:06.502Z,9.87
2023-03-12T09:19:34.094Z,6.80
2023-03-12T09:22:01.347Z,5.77
2023-03-12T09:24:29.114Z,3.90
2023-03-12T09:26:56.297Z,5.33
2023-03-12T09:29:24.832Z,4.93
2023-03-12T09:31:52.410Z,8.90
2023-03-12T09:34:19.646Z,7.43
2023-03-12T09:36:46.894Z,6.80
2023-03-12T09:39:14.316Z,7.47
2023-03-12T09:41:43.762Z,6.73
2023-03-12T09:44:13.993Z,8.83
2023-03-12T09:46:48.071Z,10.80
2023-03-12T09:49:20.149Z,9.57
2023-03-12T09:51:52.528Z,8.73
2023-03-12T09:54:25.594Z,7.70
2023-03-12T09:56:53.345Z,10.67
2023-03-12T09:59:20.556Z,9.27
2023-03-12T10:01:57.618Z,5.23
2023-03-12T10:04:58.861Z,4.33
2023-03-12T10:07:36.047Z,8.00
2023-03-12T10:10:15.615Z,8.30
2023-03-12T10:12:47.586Z,6.60
2023-03-12T10:15:33.770Z,6.70
2023-03-12T10:18:10.307Z,6.07
2023-03-12T10:20:53.110Z,9.57
2023-03-12T10:23:20.348Z,5.60
2023-03-12T10:25:59.788Z,5.60
2023-03-12T10:28:45.873Z,14.40
2023-03-12T10:31:36.875Z,8.07
2023-03-12T10:34:10.313Z,4.10
2023-03-12T10:36:39.179Z,6.53
2023-03-12T10:39:11.751Z,3.90
2023-03-12T10:41:39.872Z,7.40
2023-03-12T10:44:14.213Z,4.20
2023-03-12T10:50:20.677Z,7.83
2023-03-12T10:52:49.439Z,7.57
2023-03-12T10:55:16.593Z,5.93
2023-03-12T10:57:43.978Z,9.17
2023-03-12T11:00:14.399Z,13.97
2023-03-12T11:02:46.006Z,5.80
2023-03-12T11:05:22.764Z,6.17
2023-03-12T11:07:50.551Z,4.27
2023-03-12T11:10:20.076Z,5.20
2023-03-12T11:12:58.116Z,8.33
2023-03-12T11:15:28.905Z,5.70
2023-03-12T11:18:19.219Z,5.60
2023-03-12T11:20:46.603Z,4.60
2023-03-12T11:23:18.447Z,4.07
2023-03-12T11:25:51.607Z,8.70
2023-03-12T11:28:21.118Z,3.80
2023-03-12T11:30:50.196Z,4.50
2023-03-12T11:33:18.669Z,5.60
2023-03-12T11:36:14.229Z,5.07
2023-03-12T11:39:04.568Z,5.17
2023-03-12T11:41:46.957Z,8.90
2023-03-12T11:44:14.369Z,10.90
2023-03-12T11:47:00.232Z,10.00
2023-03-12T11:49:30.552Z,4.83
2023-03-12T11:52:01.240Z,5.97
2023-03-12T11:54:28.540Z,8.20
2023-03-12T11:57:03.972Z,8.93
2023-03-12T11:59:50.159Z,4.43
2023-03-12T12:02:17.439Z,6.77
2023-03-12T12:04:53.381Z,9.73
2023-03-12T12:07:29.867Z,4.77
2023-03-12T12:10:07.148Z,8.37
2023-03-12T12:12:52.987Z,5.43
2023-03-12T12:15:27.139Z,5.37
2023-03-12T12:18:06.211Z,4.97
2023-03-12T12:20:42.306Z,7.07
2023-03-12T12:23:17.755Z,11.77
2023-03-12T12:26:23.635Z,4.53
2023-03-12T12:28:54.204Z,8.93
2023-03-12T12:31:31.432Z,14.63
2023-03-12T12:34:17.535Z,9.33
2023-03-12T12:36:47.206Z,11.73
2023-03-12T12:39:30.227Z,11.37
2023-03-12T12:41:59.827Z,9.83
2023-03-12T12:44:44.217Z,9.60
2023-03-12T12:47:17.523Z,6.23
2023-03-12T12:49:47.462Z,12.93
2023-03-12T12:52:16.786Z,8.90
2023-03-12T12:54:55.350Z,4.60
2023-03-12T12:57:22.550Z,9.13
2023-03-12T13:00:06.311Z,6.40
2023-03-12T13:02:34.706Z,9.10
2023-03-12T13:05:02.711Z,13.30
2023-03-12T13:07:32.978Z,9.33
2023-03-12T13:10:00.392Z,9.20
2023-03-12T13:12:43.069Z,5.97
2023-03-12T13:15:44.033Z,6.07
2023-03-12T13:18:29.562Z,6.20
2023-03-12T13:21:25.843Z,5.73
2023-03-12T13:24:00.033Z,5.20
2023-03-12T13:26:47.448Z,6.10
2023-03-12T13:29:29.797Z,6.83
2023-03-12T13:31:57.157Z,3.80
2023-03-12T13:34:26.859Z,10.70
2023-03-12T13:37:02.545Z,4.73
2023-03-12T13:39:32.167Z,4.33
2023-03-12T13:42:00.831Z,5.60
2023-03-12T13:44:31.286Z,4.43
2023-03-12T13:47:03.434Z,3.53
2023-03-12T13:49:49.612Z,4.27
2023-03-12T13:52:26.053Z,8.67
2023-03-12T13:55:01.823Z,8.37
2023-03-12T13:57:44.074Z,7.83
2023-03-12T14:00:20.234Z,7.20
2023-03-12T14:02:59.074Z,10.23
2023-03-12T14:05:27.347Z,7.17
2023-03-12T14:08:03.814Z,9.13
2023-03-12T14:10:33.924Z,8.07
2023-03-12T14:13:01.134Z,10.73
2023-03-12T14:15:37.843Z,8.43
2023-03-12T14:18:14.570Z,9.30
2023-03-12T14:20:42.477Z,8.63
2023-03-12T14:23:13.361Z,6.07
2023-03-12T14:25:42.644Z,9.77
2023-03-12T14:28:14.994Z,9.97
2023-03-12T14:30:46.414Z,6.13
2023-03-12T14:33:15.193Z,5.97
2023-03-12T14:35:44.211Z,7.50
2023-03-12T14:38:17.592Z,10.27
2023-03-12T14:40:47.830Z,5.90
2023-03-12T14:43:27.286Z,8.93
2023-03-12T14:45:58.234Z,9.70
2023-03-12T14:48:29.273Z,6.70
2023-03-12T14:50:57.392Z,5.80
2023-03-12T14:53:28.765Z,7.37
2023-03-12T14:56:03.455Z,8.07
2023-03-12T14:58:31.001Z,9.70
2023-03-12T15:00:59.460Z,8.83
2023-03-12T15:03:27.522Z,8.87
2023-03-12T15:05:57.929Z,7.97
2023-03-12T15:08:29.021Z,8.37
2023-03-12T15:10:57.935Z,7.00
2023-03-12T15:13:25.967Z,6.87
2023-03-12T15:15:57.086Z,5.97
2023-03-12T15:18:29.778Z,5.20
2023-03-12T15:20:57.629Z,6.20
2023-03-12T15:23:25.924Z,7.27
2023-03-12T15:26:12.235Z,6.30
2023-03-12T15:28:39.785Z,7.67
2023-03-12T15:31:15.586Z,7.90
2023-03-12T15:33:44.615Z,7.67
2023-03-12T15:36:18.128Z,9.30
2023-03-12T15:38:49.586Z,9.50
2023-03-12T15:41:19.998Z,8.47
2023-03-12T15:43:49.082Z,7.37
2023-03-12T15:46:18.424Z,8.60
2023-03-12T15:48:53.650Z,8.67
2023-03-12T15:51:28.614Z,14.57
2023-03-12T15:54:07.406Z,16.30
2023-03-12T15:56:35.766Z,14.10
2023-03-12T15:59:23.220Z,12.80
2023-03-12T16:01:54.416Z,14.60
2023-03-12T16:04:22.356Z,11.83
2023-03-12T16:06:50.350Z,31.27
2023-03-12T16:09:24.730Z,31.13
2023-03-12T16:11:52.751Z,24.33
2023-03-12T16:14:24.952Z,46.17
2023-03-12T16:16:52.213Z,38.60
2023-03-12T16:19:21.381Z,38.57
2023-03-12T16:21:49.067Z,38.37
2023-03-12T16:24:19.213Z,54.03
2023-03-12T16:26:51.774Z,58.20
2023-03-12T16:29:20.048Z,54.47
2023-03-12T16:31:52.542Z,57.70
2023-03-12T16:34:19.850Z,51.70
2023-03-12T16:36:47.666Z,76.13
2023-03-12T16:39:15.876Z,51.67
2023-03-12T16:41:44.519Z,21.13
2023-03-12T16:44:16.630Z,25.80
2023-03-12T16:46:45.604Z,29.50
2023-03-12T16:49:17.318Z,43.70
2023-03-12T16:51:44.620Z,32.50
2023-03-12T16:54:12.572Z,27.33
2023-03-12T16:56:43.398Z,37.60
2023-03-12T16:59:17.240Z,41.80
2023-03-12T17:01:44.586Z,48.93
2023-03-12T17:04:12.369Z,109.43
2023-03-12T17:06:40.537Z,114.47
2023-03-12T17:09:08.525Z,82.83
2023-03-12T17:11:37.995Z,123.57
2023-03-12T17:14:11.045Z,118.30
2023-03-12T17:17:08.421Z,120.77
2023-03-12T17:19:35.658Z,130.17
2023-03-12T17:22:03.697Z,153.63
2023-03-12T17:24:31.006Z,163.93
2023-03-12T17:26:58.660Z,137.87
2023-03-12T17:29:25.888Z,105.30
2023-03-12T17:31:53.348Z,80.43
2023-03-12T17:34:20.586Z,67.90
2023-03-12T17:36:47.852Z,76.13
2023-03-12T17:39:19.019Z,85.60
2023-03-12T17:41:46.378Z,68.80
2023-03-12T17:44:16.175Z,77.57
2023-03-12T17:46:56.681Z,96.93
2023-03-12T17:49:25.915Z,75.50
2023-03-12T17:51:53.125Z,91.77
2023-03-12T17:54:20.524Z,74.47
2023-03-12T17:56:47.776Z,60.67
2023-03-12T17:59:15.014Z,76.10
2023-03-12T18:01:42.251Z,60.37
2023-03-12T18:04:09.476Z,48.53
2023-03-12T18:06:36.721Z,40.03
2023-03-12T18:09:04.132Z,30.67
2023-03-12T18:11:31.419Z,20.87
2023-03-12T18:13:58.664Z,61.37
2023-03-12T18:16:25.979Z,64.80
2023-03-12T18:18:53.293Z,43.33
2023-03-12T18:21:20.777Z,49.40
2023-03-12T18:23:51.493Z,62.50
2023-03-12T18:26:19.046Z,58.97
2023-03-12T18:28:46.454Z,48.90
2023-03-12T18:31:13.716Z,33.00
2023-03-12T18:33:41.906Z,35.90
2023-03-12T18:36:09.480Z,35.07
2023-03-12T18:38:36.746Z,40.13
2023-03-12T18:41:07.753Z,39.10
2023-03-12T18:43:35.129Z,41.53
2023-03-12T18:46:02.449Z,42.47
2023-03-12T18:48:30.534Z,46.27
2023-03-12T18:50:58.455Z,27.93
2023-03-12T18:53:25.674Z,31.80
2023-03-12T18:55:53.232Z,26.60
2023-03-12T18:58:20.817Z,24.07
2023-03-12T19:00:48.290Z,17.13
2023-03-12T19:03:15.516Z,26.13
2023-03-12T19:05:42.782Z,26.47
2023-03-12T19:08:10.031Z,20.37
2023-03-12T19:10:37.272Z,20.33
2023-03-12T19:13:04.521Z,23.80
2023-03-12T19:15:32.298Z,30.27
2023-03-12T19:17:59.781Z,37.10
2023-03-12T19:20:27.155Z,33.67
2023-03-12T19:22:54.369Z,36.10
2023-03-12T19:25:21.701Z,30.70
2023-03-12T19:27:48.973Z,39.70
2023-03-12T19:30:16.474Z,33.77
2023-03-12T19:32:44.790Z,32.13
2023-03-12T19:35:13.533Z,33.73
2023-03-12T19:37:41.084Z,37.13
2023-03-12T19:40:13.306Z,25.40
2023-03-12T19:42:40.652Z,28.00
2023-03-12T19:45:08.140Z,22.63
2023-03-12T19:47:35.471Z,21.37
2023-03-12T19:50:03.020Z,18.40
2023-03-12T19:52:30.372Z,18.87
2023-03-12T19:55:04.735Z,13.20
2023-03-12T19:57:33.003Z,19.87
2023-03-12T20:00:00.261Z,16.47
2023-03-12T20:02:27.886Z,14.30
2023-03-12T20:04:55.494Z,17.83
2023-03-12T20:07:23.076Z,18.37
2023-03-12T20:09:52.067Z,14.23
2023-03-12T20:12:22.242Z,9.97
2023-03-12T20:14:49.523Z,11.17
2023-03-12T20:17:16.839Z,10.77
2023-03-12T20:19:44.154Z,9.83
2023-03-12T20:22:11.507Z,12.43
2023-03-12T20:24:38.713Z,12.47
2023-03-12T20:27:05.958Z,8.80
2023-03-12T20:29:33.338Z,14.17
2023-03-12T20:32:00.629Z,11.83
2023-03-12T20:34:27.947Z,13.73
2023-03-12T20:36:55.190Z,14.43
2023-03-12T20:39:22.380Z,13.80
2023-03-12T20:41:50.256Z,15.80
2023-03-12T20:44:18.552Z,18.87
2023-03-12T20:46:45.791Z,18.63
2023-03-12T20:49:13.195Z,21.53
2023-03-12T20:51:44.643Z,19.63
2023-03-12T20:54:13.007Z,20.90
2023-03-12T20:56:43.527Z,17.60
2023-03-12T20:59:11.256Z,17.17
2023-03-12T21:01:39.077Z,19.37
2023-03-12T21:04:06.423Z,20.67
2023-03-12T21:06:33.675Z,23.87
2023-03-12T21:09:00.923Z,15.10
2023-03-12T21:11:28.217Z,12.40
2023-03-12T21:13:55.503Z,15.80
2023-03-12T21:16:23.045Z,15.73
2023-03-12T21:18:50.376Z,16.30
2023-03-12T21:21:17.575Z,19.13
2023-03-12T21:23:44.862Z,23.03
2023-03-12T21:26:12.598Z,21.77
2023-03-12T21:28:39.904Z,19.50
2023-03-12T21:31:08.385Z,24.73
2023-03-12T21:33:36.041Z,25.43
2023-03-12T21:36:06.798Z,26.50
2023-03-12T21:38:35.792Z,22.80
2023-03-12T21:41:11.056Z,25.07
2023-03-12T21:43:38.859Z,22.47
2023-03-12T21:46:17.383Z,23.00
2023-03-12T21:48:45.907Z,25.70
2023-03-12T21:51:14.157Z,29.50
2023-03-12T21:53:41.699Z,24.43
2023-03-12T21:56:09.300Z,27.17
2023-03-12T21:58:36.785Z,19.27
2023-03-12T22:01:14.438Z,25.40
2023-03-12T22:03:43.082Z,24.47
2023-03-12T22:06:10.696Z,29.20
2023-03-12T22:08:38.422Z,29.03
2023-03-12T22:11:07.066Z,22.00
2023-03-12T22:13:34.469Z,23.97
2023-03-12T22:16:03.053Z,25.80
2023-03-12T22:18:30.493Z,22.50
2023-03-12T22:21:00.742Z,22.33
2023-03-12T22:23:28.412Z,28.77
2023-03-12T22:25:55.983Z,21.87
2023-03-12T22:28:25.655Z,23.17
2023-03-12T22:30:57.569Z,20.77
2023-03-12T22:33:24.802Z,20.27
2023-03-12T22:35:52.062Z,23.00
2023-03-12T22:38:19.427Z,27.70
2023-03-12T22:40:46.754Z,25.67
2023-03-12T22:43:14.118Z,24.37
2023-03-12T22:45:41.359Z,25.83
2023-03-12T22:48:08.655Z,23.30
2023-03-12T22:50:36.008Z,19.40
2023-03-12T22:53:03.284Z,22.30
2023-03-12T22:55:30.556Z,25.80
2023-03-12T22:57:57.818Z,21.40
2023-03-12T23:00:26.702Z,22.90
2023-03-12T23:02:54.082Z,22.67
2023-03-12T23:05:21.732Z,26.53
2023-03-12T23:07:49.463Z,25.03
2023-03-12T23:10:16.763Z,19.30
2023-03-12T23:12:44.024Z,18.50
2023-03-12T23:15:11.252Z,22.80
2023-03-12T23:17:38.844Z,23.03
2023-03-12T23:20:07.846Z,18.40
2023-03-12T23:22:35.125Z,24.73
2023-03-12T23:25:02.490Z,22.93
2023-03-12T23:27:30.237Z,19.77
2023-03-12T23:29:58.028Z,21.87
2023-03-12T23:32:25.782Z,20.10
2023-03-12T23:34:53.136Z,19.60
2023-03-12T23:37:20.319Z,18.10
2023-03-12T23:39:54.555Z,22.47
2023-03-12T23:42:22.398Z,24.30
2023-03-12T23:44:49.640Z,23.57
2023-03-12T23:47:16.890Z,23.20
2023-03-12T23:49:44.484Z,24.40
2023-03-12T23:52:11.774Z,17.50
2023-03-12T23:54:39.105Z,27.07
2023-03-12T23:57:06.380Z,22.33
2023-03-12T23:59:33.749Z,21.07
